Time,TemperatureF,DewpointF,PressureIn,WindDirection,WindDirectionDegrees,WindSpeedMPH,WindSpeedGustMPH,Humidity,HourlyPrecipIn,Conditions,Clouds,dailyrainin,SoftwareType,DateUTC
2013-07-04 00:01:00,65.0,62.0,30.10,ESE,119,0.0,0.0,91,0.00,,,0.00,,2013-07-04 05:01:00,
2013-07-04 00:12:00,65.0,62.0,30.10,ESE,119,0.0,0.0,91,0.00,,,0.00,,2013-07-04 05:12:00,
2013-07-04 00:22:00,65.0,62.0,30.11,ESE,119,0.0,0.0,91,0.00,,,0.00,,2013-07-04 05:22:00,
2013-07-04 00:33:00,65.0,62.0,30.11,ESE,119,0.0,0.0,91,0.00,,,0.00,,2013-07-04 05:33:00,
2013-07-04 00:43:00,65.0,62.0,30.11,ESE,119,0.0,0.0,91,0.00,,,0.00,,2013-07-04 05:43:00,
2013-07-04 00:52:00,64.0,61.0,30.11,ESE,119,0.0,0.0,91,0.00,,,0.00,,2013-07-04 05:52:00,
2013-07-04 01:01:00,64.0,62.0,30.11,ESE,119,0.0,1.0,92,0.00,,,0.00,,2013-07-04 06:01:00,
2013-07-04 01:11:00,64.0,62.0,30.11,ESE,119,0.0,1.0,92,0.00,,,0.00,,2013-07-04 06:11:00,
2013-07-04 01:22:00,64.0,62.0,30.11,ESE,119,0.0,0.0,92,0.00,,,0.00,,2013-07-04 06:22:00,
2013-07-04 01:34:00,64.0,62.0,30.10,ESE,119,0.0,0.0,92,0.00,,,0.00,,2013-07-04 06:34:00,
2013-07-04 01:43:00,64.0,62.0,30.10,ESE,119,0.0,0.0,92,0.00,,,0.00,,2013-07-04 06:43:00,
2013-07-04 01:53:00,64.0,62.0,30.10,ESE,119,0.0,0.0,92,0.00,,,0.00,,2013-07-04 06:53:00,
2013-07-04 02:02:00,64.0,62.0,30.10,ESE,103,0.0,1.0,93,0.00,,,0.00,,2013-07-04 07:02:00,
2013-07-04 02:12:00,64.0,62.0,30.10,ESE,103,0.0,1.0,93,0.00,,,0.00,,2013-07-04 07:12:00,
2013-07-04 02:22:00,65.0,63.0,30.09,East,86,0.0,1.0,93,0.00,,,0.00,,2013-07-04 07:22:00,
2013-07-04 02:34:00,65.0,63.0,30.09,East,88,0.0,0.0,92,0.00,,,0.00,,2013-07-04 07:34:00,
2013-07-04 02:43:00,65.0,63.0,30.09,East,88,0.0,0.0,92,0.00,,,0.00,,2013-07-04 07:43:00,
2013-07-04 02:52:00,65.0,62.0,30.09,East,88,0.0,1.0,91,0.00,,,0.00,,2013-07-04 07:52:00,
2013-07-04 03:11:00,65.0,62.0,30.09,East,88,0.0,0.0,91,0.00,,,0.00,,2013-07-04 08:11:00,
2013-07-04 03:22:00,64.0,62.0,30.08,East,88,0.0,0.0,92,0.00,,,0.00,,2013-07-04 08:22:00,
2013-07-04 03:33:00,64.0,62.0,30.08,East,88,0.0,0.0,92,0.00,,,0.00,,2013-07-04 08:33:00,
2013-07-04 03:42:00,64.0,62.0,30.08,East,88,0.0,0.0,92,0.00,,,0.00,,2013-07-04 08:42:00,
2013-07-04 03:53:00,64.0,62.0,30.08,East,88,0.0,0.0,92,0.00,,,0.00,,2013-07-04 08:53:00,
2013-07-04 04:02:00,64.0,62.0,30.08,East,88,0.0,0.0,92,0.00,,,0.00,,2013-07-04 09:02:00,
2013-07-04 04:11:00,64.0,62.0,30.08,East,88,0.0,0.0,92,0.00,,,0.00,,2013-07-04 09:11:00,
2013-07-04 04:22:00,64.0,62.0,30.08,East,88,0.0,0.0,92,0.00,,,0.00,,2013-07-04 09:22:00,
2013-07-04 04:32:00,63.0,61.0,30.08,East,88,0.0,1.0,92,0.00,,,0.00,,2013-07-04 09:32:00,
2013-07-04 04:42:00,63.0,61.0,30.08,East,88,0.0,1.0,92,0.00,,,0.00,,2013-07-04 09:42:00,
2013-07-04 04:52:00,63.0,61.0,30.09,East,88,0.0,1.0,93,0.00,,,0.00,,2013-07-04 09:52:00,
2013-07-04 05:01:00,63.0,61.0,30.09,East,88,0.0,1.0,93,0.00,,,0.00,,2013-07-04 10:01:00,
2013-07-04 05:11:00,63.0,61.0,30.09,East,88,0.0,1.0,93,0.00,,,0.00,,2013-07-04 10:11:00,
2013-07-04 05:22:00,63.0,61.0,30.09,ENE,78,0.0,0.0,93,0.00,,,0.00,,2013-07-04 10:22:00,
2013-07-04 05:42:00,63.0,61.0,30.09,ENE,78,0.0,0.0,93,0.00,,,0.00,,2013-07-04 10:42:00,
2013-07-04 05:53:00,63.0,61.0,30.09,ENE,77,0.0,1.0,93,0.00,,,0.00,,2013-07-04 10:53:00,
2013-07-04 06:02:00,63.0,61.0,30.09,ENE,77,0.0,1.0,94,0.00,,,0.00,,2013-07-04 11:02:00,
2013-07-04 06:11:00,63.0,61.0,30.09,ENE,77,0.0,1.0,94,0.00,,,0.00,,2013-07-04 11:11:00,
2013-07-04 06:22:00,64.0,62.0,30.09,ENE,77,0.0,1.0,94,0.00,,,0.00,,2013-07-04 11:22:00,
2013-07-04 06:34:00,64.0,62.0,30.09,ENE,77,0.0,2.0,94,0.00,,,0.00,,2013-07-04 11:34:00,
2013-07-04 06:43:00,64.0,62.0,30.09,ENE,77,0.0,2.0,94,0.00,,,0.00,,2013-07-04 11:43:00,
2013-07-04 06:53:00,64.0,62.0,30.10,ENE,70,0.0,2.0,94,0.00,,,0.00,,2013-07-04 11:53:00,
2013-07-04 07:02:00,64.0,62.0,30.10,ENE,70,0.0,2.0,94,0.00,,,0.00,,2013-07-04 12:02:00,
2013-07-04 07:12:00,64.0,62.0,30.10,ENE,70,0.0,2.0,94,0.00,,,0.00,,2013-07-04 12:12:00,
2013-07-04 07:22:00,65.0,63.0,30.10,ENE,74,0.0,2.0,94,0.00,,,0.00,,2013-07-04 12:22:00,
2013-07-04 07:33:00,66.0,64.0,30.11,ENE,74,0.0,2.0,94,0.00,,,0.00,,2013-07-04 12:33:00,
2013-07-04 07:43:00,66.0,64.0,30.11,ENE,74,0.0,2.0,94,0.00,,,0.00,,2013-07-04 12:43:00,
2013-07-04 07:52:00,66.0,64.0,30.10,ENE,72,0.0,1.0,93,0.00,,,0.00,,2013-07-04 12:52:00,
2013-07-04 08:02:00,67.0,65.0,30.11,ENE,72,1.0,3.0,93,0.00,,,0.00,,2013-07-04 13:02:00,
2013-07-04 08:12:00,67.0,65.0,30.11,ENE,72,1.0,3.0,93,0.00,,,0.00,,2013-07-04 13:12:00,
2013-07-04 08:23:00,67.0,65.0,30.11,ENE,76,0.0,3.0,93,0.00,,,0.00,,2013-07-04 13:23:00,
2013-07-04 08:33:00,67.0,65.0,30.11,North,9,0.0,2.0,93,0.00,,,0.00,,2013-07-04 13:33:00,
2013-07-04 08:43:00,67.0,65.0,30.11,North,9,0.0,2.0,93,0.00,,,0.00,,2013-07-04 13:43:00,
2013-07-04 08:53:00,68.0,66.0,30.11,NE,49,0.0,1.0,93,0.00,,,0.00,,2013-07-04 13:53:00,
2013-07-04 09:02:00,69.0,66.0,30.11,East,84,0.0,3.0,91,0.00,,,0.00,,2013-07-04 14:02:00,
2013-07-04 09:11:00,69.0,66.0,30.11,East,84,0.0,3.0,91,0.00,,,0.00,,2013-07-04 14:11:00,
2013-07-04 09:22:00,70.0,68.0,30.11,East,80,0.0,2.0,92,0.00,,,0.00,,2013-07-04 14:22:00,
2013-07-04 09:33:00,71.0,68.0,30.11,ENE,61,0.0,4.0,91,0.00,,,0.00,,2013-07-04 14:33:00,
2013-07-04 09:43:00,71.0,68.0,30.11,ENE,61,0.0,4.0,91,0.00,,,0.00,,2013-07-04 14:43:00,
2013-07-04 09:53:00,71.0,68.0,30.11,East,83,1.0,3.0,90,0.00,,,0.00,,2013-07-04 14:53:00,
2013-07-04 10:02:00,71.0,68.0,30.11,ENE,69,1.0,3.0,90,0.00,,,0.00,,2013-07-04 15:02:00,
2013-07-04 10:11:00,71.0,68.0,30.11,ENE,69,1.0,3.0,90,0.00,,,0.00,,2013-07-04 15:11:00,
2013-07-04 10:23:00,73.0,69.0,30.11,NE,45,0.0,2.0,88,0.00,,,0.00,,2013-07-04 15:23:00,
2013-07-04 10:33:00,73.0,69.0,30.11,NE,49,1.0,3.0,87,0.00,,,0.00,,2013-07-04 15:33:00,
2013-07-04 10:43:00,73.0,69.0,30.11,NE,49,1.0,3.0,87,0.00,,,0.00,,2013-07-04 15:43:00,
2013-07-04 10:53:00,74.0,69.0,30.11,ENE,63,1.0,4.0,85,0.00,,,0.00,,2013-07-04 15:53:00,
2013-07-04 11:02:00,74.0,69.0,30.11,ESE,105,1.0,4.0,85,0.00,,,0.00,,2013-07-04 16:02:00,
2013-07-04 11:11:00,74.0,69.0,30.11,ESE,105,1.0,4.0,85,0.00,,,0.00,,2013-07-04 16:11:00,
2013-07-04 11:22:00,75.0,70.0,30.11,ESE,113,1.0,5.0,85,0.00,,,0.00,,2013-07-04 16:22:00,
2013-07-04 11:33:00,75.0,69.0,30.11,ENE,73,3.0,6.0,81,0.00,,,0.00,,2013-07-04 16:33:00,
2013-07-04 11:43:00,75.0,69.0,30.11,ENE,73,3.0,6.0,81,0.00,,,0.00,,2013-07-04 16:43:00,
2013-07-04 11:52:00,76.0,69.0,30.11,North,360,0.0,8.0,79,0.00,,,0.00,,2013-07-04 16:52:00,
2013-07-04 12:01:00,76.0,69.0,30.11,North,360,0.0,8.0,79,0.00,,,0.00,,2013-07-04 17:01:00,
2013-07-04 12:12:00,77.0,70.0,30.11,ENE,57,2.0,5.0,78,0.00,,,0.00,,2013-07-04 17:12:00,
2013-07-04 12:22:00,77.0,70.0,30.11,ENE,78,2.0,8.0,79,0.00,,,0.00,,2013-07-04 17:22:00,
2013-07-04 12:34:00,77.0,70.0,30.11,ENE,78,2.0,8.0,79,0.00,,,0.00,,2013-07-04 17:34:00,
2013-07-04 12:43:00,77.0,70.0,30.11,ENE,78,2.0,8.0,79,0.00,,,0.00,,2013-07-04 17:43:00,
2013-07-04 12:53:00,77.0,70.0,30.11,East,86,3.0,8.0,78,0.00,,,0.00,,2013-07-04 17:53:00,
2013-07-04 13:01:00,77.0,69.0,30.11,SSE,160,4.0,8.0,76,0.00,,,0.00,,2013-07-04 18:01:00,
2013-07-04 13:11:00,77.0,69.0,30.11,SSE,160,4.0,8.0,76,0.00,,,0.00,,2013-07-04 18:11:00,
2013-07-04 13:22:00,77.0,69.0,30.10,South,176,2.0,8.0,76,0.00,,,0.00,,2013-07-04 18:22:00,
2013-07-04 13:33:00,77.0,69.0,30.10,South,176,2.0,8.0,76,0.00,,,0.00,,2013-07-04 18:33:00,
2013-07-04 13:43:00,78.0,70.0,30.10,NE,53,2.0,10.0,76,0.00,,,0.00,,2013-07-04 18:43:00,
2013-07-04 13:52:00,78.0,69.0,30.10,ENE,72,3.0,9.0,73,0.00,,,0.00,,2013-07-04 18:52:00,
2013-07-04 14:01:00,78.0,69.0,30.10,ENE,72,3.0,9.0,73,0.00,,,0.00,,2013-07-04 19:01:00,
2013-07-04 14:12:00,79.0,69.0,30.09,East,98,4.0,11.0,71,0.00,,,0.00,,2013-07-04 19:12:00,
2013-07-04 14:22:00,79.0,68.0,30.09,ENE,57,4.0,8.0,69,0.00,,,0.00,,2013-07-04 19:22:00,
2013-07-04 14:33:00,79.0,68.0,30.09,ENE,57,4.0,8.0,69,0.00,,,0.00,,2013-07-04 19:33:00,
2013-07-04 14:43:00,79.0,68.0,30.09,ESE,108,7.0,12.0,69,0.00,,,0.00,,2013-07-04 19:43:00,
2013-07-04 14:53:00,78.0,68.0,30.08,ENE,78,2.0,8.0,72,0.00,,,0.00,,2013-07-04 19:53:00,
2013-07-04 15:01:00,78.0,68.0,30.08,ENE,78,2.0,8.0,72,0.00,,,0.00,,2013-07-04 20:01:00,
2013-07-04 15:11:00,79.0,68.0,30.08,ENE,73,5.0,10.0,70,0.00,,,0.00,,2013-07-04 20:11:00,
2013-07-04 15:22:00,79.0,68.0,30.08,NE,45,3.0,10.0,68,0.00,,,0.00,,2013-07-04 20:22:00,
2013-07-04 15:33:00,79.0,68.0,30.08,NE,45,3.0,10.0,68,0.00,,,0.00,,2013-07-04 20:33:00,
2013-07-04 15:42:00,79.0,69.0,30.08,ESE,117,3.0,11.0,71,0.00,,,0.00,,2013-07-04 20:42:00,
2013-07-04 15:53:00,78.0,67.0,30.07,East,88,3.0,9.0,70,0.00,,,0.00,,2013-07-04 20:53:00,
2013-07-04 16:01:00,78.0,67.0,30.07,East,88,3.0,9.0,70,0.00,,,0.00,,2013-07-04 21:01:00,
2013-07-04 16:11:00,78.0,67.0,30.07,SE,129,3.0,10.0,70,0.00,,,0.00,,2013-07-04 21:11:00,
2013-07-04 16:22:00,78.0,68.0,30.06,SE,138,4.0,10.0,71,0.00,,,0.00,,2013-07-04 21:22:00,
2013-07-04 16:32:00,78.0,68.0,30.06,SE,138,4.0,10.0,71,0.00,,,0.00,,2013-07-04 21:32:00,
2013-07-04 16:43:00,77.0,67.0,30.06,East,94,2.0,11.0,71,0.00,,,0.00,,2013-07-04 21:43:00,
2013-07-04 16:52:00,76.0,67.0,30.06,ESE,119,2.0,10.0,74,0.00,,,0.00,,2013-07-04 21:52:00,
2013-07-04 17:02:00,76.0,67.0,30.06,ESE,119,2.0,10.0,74,0.00,,,0.00,,2013-07-04 22:02:00,
2013-07-04 17:12:00,76.0,67.0,30.05,ENE,62,4.0,8.0,74,0.00,,,0.00,,2013-07-04 22:12:00,
2013-07-04 17:22:00,76.0,68.0,30.05,ESE,123,4.0,8.0,76,0.00,,,0.00,,2013-07-04 22:22:00,
2013-07-04 17:33:00,76.0,68.0,30.05,ESE,123,4.0,8.0,76,0.00,,,0.00,,2013-07-04 22:33:00,
2013-07-04 17:43:00,75.0,67.0,30.05,East,95,2.0,8.0,76,0.00,,,0.00,,2013-07-04 22:43:00,
2013-07-04 17:52:00,75.0,68.0,30.05,East,101,2.0,9.0,78,0.00,,,0.00,,2013-07-04 22:52:00,
2013-07-04 18:01:00,75.0,68.0,30.05,East,101,2.0,9.0,78,0.00,,,0.00,,2013-07-04 23:01:00,
2013-07-04 18:12:00,74.0,67.0,30.05,ESE,111,2.0,7.0,79,0.00,,,0.00,,2013-07-04 23:12:00,
2013-07-04 18:23:00,74.0,67.0,30.05,East,86,1.0,6.0,79,0.00,,,0.00,,2013-07-04 23:23:00,
2013-07-04 18:33:00,74.0,67.0,30.05,East,86,1.0,6.0,79,0.00,,,0.00,,2013-07-04 23:33:00,
2013-07-04 18:43:00,74.0,67.0,30.06,ESE,104,3.0,8.0,80,0.00,,,0.00,,2013-07-04 23:43:00,
2013-07-04 18:52:00,74.0,67.0,30.07,SSE,167,1.0,5.0,80,0.00,,,0.00,,2013-07-04 23:52:00,
2013-07-04 19:01:00,74.0,67.0,30.07,SSE,167,1.0,5.0,80,0.00,,,0.00,,2013-07-05 00:01:00,
2013-07-04 19:11:00,74.0,68.0,30.07,SSE,159,1.0,4.0,81,0.00,,,0.00,,2013-07-05 00:11:00,
2013-07-04 19:22:00,73.0,67.0,30.06,ENE,69,1.0,5.0,82,0.00,,,0.00,,2013-07-05 00:22:00,
2013-07-04 19:32:00,73.0,67.0,30.06,ENE,69,1.0,5.0,82,0.00,,,0.00,,2013-07-05 00:32:00,
2013-07-04 19:43:00,73.0,67.0,30.06,ESE,121,1.0,4.0,82,0.00,,,0.00,,2013-07-05 00:43:00,
2013-07-04 19:52:00,73.0,67.0,30.06,ESE,121,1.0,4.0,82,0.00,,,0.00,,2013-07-05 00:52:00,
2013-07-04 20:01:00,73.0,67.0,30.06,East,96,1.0,3.0,82,0.00,,,0.00,,2013-07-05 01:01:00,
2013-07-04 20:11:00,73.0,67.0,30.06,East,96,1.0,3.0,82,0.00,,,0.00,,2013-07-05 01:11:00,
2013-07-04 20:22:00,73.0,67.0,30.06,East,96,1.0,3.0,82,0.00,,,0.00,,2013-07-05 01:22:00,
2013-07-04 20:32:00,73.0,67.0,30.06,SE,141,1.0,7.0,82,0.00,,,0.00,,2013-07-05 01:32:00,
2013-07-04 20:42:00,73.0,67.0,30.06,SE,141,1.0,7.0,82,0.00,,,0.00,,2013-07-05 01:42:00,
2013-07-04 20:52:00,73.0,67.0,30.06,SE,141,1.0,7.0,82,0.00,,,0.00,,2013-07-05 01:52:00,
2013-07-04 21:02:00,71.0,67.0,30.05,East,99,1.0,3.0,86,0.00,,,0.00,,2013-07-05 02:02:00,
2013-07-04 21:11:00,71.0,67.0,30.05,East,99,1.0,3.0,86,0.00,,,0.00,,2013-07-05 02:11:00,
2013-07-04 21:22:00,70.0,66.0,30.06,East,98,0.0,3.0,87,0.00,,,0.00,,2013-07-05 02:22:00,
2013-07-04 21:32:00,70.0,66.0,30.06,East,98,0.0,3.0,87,0.00,,,0.00,,2013-07-05 02:32:00,
2013-07-04 21:42:00,70.0,66.0,30.06,East,98,0.0,3.0,87,0.00,,,0.00,,2013-07-05 02:42:00,
2013-07-04 21:52:00,69.0,66.0,30.07,ENE,74,0.0,0.0,89,0.00,,,0.00,,2013-07-05 02:52:00,
2013-07-04 22:02:00,69.0,66.0,30.07,ENE,74,0.0,0.0,89,0.00,,,0.00,,2013-07-05 03:02:00,
2013-07-04 22:11:00,69.0,66.0,30.07,ENE,74,0.0,0.0,89,0.00,,,0.00,,2013-07-05 03:11:00,
2013-07-04 22:22:00,69.0,66.0,30.07,ENE,74,0.0,0.0,89,0.00,,,0.00,,2013-07-05 03:22:00,
2013-07-04 22:32:00,69.0,66.0,30.07,ENE,74,0.0,0.0,89,0.00,,,0.00,,2013-07-05 03:32:00,
2013-07-04 22:42:00,69.0,66.0,30.07,ENE,74,0.0,0.0,89,0.00,,,0.00,,2013-07-05 03:42:00,
2013-07-04 22:52:00,69.0,66.0,30.07,ENE,74,0.0,0.0,89,0.00,,,0.00,,2013-07-05 03:52:00,
2013-07-04 23:01:00,69.0,66.0,30.08,East,100,0.0,2.0,89,0.00,,,0.00,,2013-07-05 04:01:00,
2013-07-04 23:11:00,69.0,66.0,30.08,East,100,0.0,2.0,89,0.00,,,0.00,,2013-07-05 04:11:00,
2013-07-04 23:22:00,69.0,66.0,30.08,SE,134,0.0,2.0,89,0.00,,,0.00,,2013-07-05 04:22:00,
2013-07-04 23:33:00,69.0,66.0,30.08,SE,134,0.0,2.0,89,0.00,,,0.00,,2013-07-05 04:33:00,
2013-07-04 23:43:00,69.0,66.0,30.08,SE,134,0.0,2.0,89,0.00,,,0.00,,2013-07-05 04:43:00,
2013-07-04 23:53:00,69.0,66.0,30.08,SE,134,0.0,2.0,89,0.00,,,0.00,,2013-07-05 04:53:00,